Time;durP1;ratioP1;P1;durP2;ratioP2;P2;SDS_P1;SDS_P2;PMS_P1;PMS_P2;Temp;Humidity;BMP_temperature;BMP_pressure;BME280_temperature;BME280_humidity;BME280_pressure;Samples;Min_cycle;Max_cycle;Signal;HPM_P1;HPM_P2
2023/09/03 00:00:57;;;;;;;5.03;3.23;;;14.90;99.90;;;;;;2046028;28;20251;-66
2023/09/03 00:01:57;;;;;;;5.03;3.40;;;14.90;99.90;;;;;;2062255;28;20222;-66
2023/09/03 00:02:58;;;;;;;4.60;3.37;;;14.80;99.90;;;;;;2062671;28;20244;-66
2023/09/03 00:03:59;;;;;;;4.88;3.70;;;14.90;99.90;;;;;;2060950;28;20214;-66
2023/09/03 00:05:00;;;;;;;3.47;3.17;;;14.90;99.90;;;;;;2047974;28;20703;-66
2023/09/03 00:06:00;;;;;;;4.30;3.60;;;14.90;99.90;;;;;;2060027;28;20301;-66
2023/09/03 00:07:01;;;;;;;4.37;3.73;;;14.90;99.90;;;;;;2061890;28;20219;-66
2023/09/03 00:08:03;;;;;;;4.50;3.57;;;14.90;99.90;;;;;;2061809;28;20213;-67
2023/09/03 00:09:07;;;;;;;4.30;3.33;;;14.80;99.90;;;;;;2062033;28;20186;-66
2023/09/03 00:10:08;;;;;;;4.30;3.42;;;14.80;99.90;;;;;;2046292;28;20194;-66
2023/09/03 00:11:08;;;;;;;4.27;3.60;;;14.80;99.90;;;;;;2054382;28;20675;-67
2023/09/03 00:12:09;;;;;;;5.17;4.03;;;14.70;99.90;;;;;;2062849;28;20416;-66
2023/09/03 00:13:10;;;;;;;4.60;3.80;;;14.80;99.90;;;;;;2063788;28;20658;-66
2023/09/03 00:14:11;;;;;;;4.00;3.60;;;14.80;99.90;;;;;;2063476;28;20197;-66
2023/09/03 00:15:12;;;;;;;4.10;3.60;;;14.80;99.90;;;;;;2062470;28;20234;-65
2023/09/03 00:16:13;;;;;;;4.00;3.60;;;14.70;99.90;;;;;;2062574;28;20610;-66
2023/09/03 00:17:14;;;;;;;5.75;4.03;;;14.70;99.90;;;;;;2061862;28;20592;-66
2023/09/03 00:18:15;;;;;;;5.32;3.78;;;14.70;99.90;;;;;;2058393;28;20664;-66
2023/09/03 00:19:16;;;;;;;5.10;3.50;;;14.70;99.90;;;;;;2063051;28;20269;-66
2023/09/03 00:20:17;;;;;;;3.90;3.50;;;14.70;99.90;;;;;;2071573;28;20184;-66
2023/09/03 00:21:18;;;;;;;4.13;3.60;;;14.70;99.90;;;;;;2067453;28;20201;-66
2023/09/03 00:22:19;;;;;;;4.77;3.93;;;14.70;99.90;;;;;;2060003;28;20193;-66
2023/09/03 00:23:19;;;;;;;3.80;3.50;;;14.70;99.90;;;;;;2068716;28;20248;-66
2023/09/03 00:24:20;;;;;;;5.13;3.20;;;14.70;99.90;;;;;;2063533;28;20179;-66
2023/09/03 00:25:21;;;;;;;4.30;3.37;;;14.60;99.90;;;;;;2059262;28;20195;-66
2023/09/03 00:26:26;;;;;;;5.47;3.47;;;14.70;99.90;;;;;;2062106;28;20257;-67
2023/09/03 00:27:26;;;;;;;4.45;3.60;;;14.60;99.90;;;;;;2063833;28;20234;-66
2023/09/03 00:28:28;;;;;;;5.37;3.60;;;14.70;99.90;;;;;;2063515;28;20710;-66
2023/09/03 00:29:29;;;;;;;4.72;3.60;;;14.70;99.90;;;;;;2056469;28;20534;-66
2023/09/03 00:30:30;;;;;;;3.97;3.57;;;14.70;99.90;;;;;;2063420;28;20240;-66
2023/09/03 00:31:30;;;;;;;4.07;3.47;;;14.70;99.90;;;;;;2063950;28;20288;-66
2023/09/03 00:32:31;;;;;;;5.27;3.37;;;14.70;99.90;;;;;;2063553;28;20238;-66
2023/09/03 00:33:32;;;;;;;4.17;3.40;;;14.70;99.90;;;;;;2063691;28;20301;-66
2023/09/03 00:34:33;;;;;;;4.95;3.50;;;14.60;99.90;;;;;;2071442;28;20321;-67
2023/09/03 00:35:34;;;;;;;5.22;3.92;;;14.60;99.90;;;;;;2061748;28;20237;-66
2023/09/03 00:36:35;;;;;;;3.60;3.30;;;14.60;99.90;;;;;;2064124;28;20673;-66
2023/09/03 00:37:35;;;;;;;4.00;3.53;;;14.70;99.90;;;;;;2064199;28;20242;-66
2023/09/03 00:38:36;;;;;;;5.70;4.10;;;14.60;99.90;;;;;;2062781;28;20320;-66
2023/09/03 00:39:37;;;;;;;4.40;3.77;;;14.70;99.90;;;;;;2064216;28;20694;-66
2023/09/03 00:40:38;;;;;;;5.67;3.80;;;14.70;99.90;;;;;;2059112;28;20250;-66
2023/09/03 00:41:39;;;;;;;4.07;3.67;;;14.60;99.90;;;;;;2055241;28;20626;-66
2023/09/03 00:42:40;;;;;;;4.53;3.50;;;14.60;99.90;;;;;;2060420;28;20303;-66
2023/09/03 00:43:41;;;;;;;3.50;3.20;;;14.60;99.90;;;;;;2064256;28;20265;-66
2023/09/03 00:44:41;;;;;;;4.40;3.80;;;14.60;99.90;;;;;;2064352;28;20609;-66
2023/09/03 00:45:45;;;;;;;4.03;3.57;;;14.60;99.90;;;;;;2064871;28;20296;-66
2023/09/03 00:46:46;;;;;;;4.53;3.38;;;14.60;99.90;;;;;;2064237;28;20233;-66
2023/09/03 00:47:47;;;;;;;4.73;3.50;;;14.60;99.90;;;;;;2060080;28;20230;-66
2023/09/03 00:48:48;;;;;;;4.20;3.40;;;14.60;99.90;;;;;;2060756;28;20285;-67
2023/09/03 00:49:49;;;;;;;4.10;3.60;;;14.50;99.90;;;;;;2064069;28;20245;-66
2023/09/03 00:50:52;;;;;;;4.33;3.60;;;14.60;99.90;;;;;;2061318;28;20483;-67
2023/09/03 00:51:54;;;;;;;4.07;3.72;;;14.50;99.90;;;;;;2063501;28;20258;-67
2023/09/03 00:52:55;;;;;;;4.03;3.65;;;14.50;99.90;;;;;;2065791;28;20225;-66
2023/09/03 00:53:56;;;;;;;5.53;3.75;;;14.50;99.90;;;;;;2071769;28;20276;-66
2023/09/03 00:54:58;;;;;;;5.57;3.78;;;14.60;99.90;;;;;;2062274;28;20301;-66
2023/09/03 00:55:59;;;;;;;3.92;3.30;;;14.50;99.90;;;;;;2061677;28;20230;-66
2023/09/03 00:57:01;;;;;;;3.30;2.97;;;14.50;99.90;;;;;;2063425;28;20242;-66
2023/09/03 00:58:02;;;;;;;3.90;3.22;;;14.50;99.90;;;;;;2055351;28;20908;-66
2023/09/03 00:59:03;;;;;;;4.85;3.38;;;14.50;99.90;;;;;;2062008;28;20288;-67
2023/09/03 01:00:04;;;;;;;3.90;3.50;;;14.50;99.90;;;;;;2064125;28;20629;-67
2023/09/03 01:01:06;;;;;;;4.43;3.60;;;14.50;99.90;;;;;;2055408;28;20209;-67
2023/09/03 01:02:08;;;;;;;4.75;3.72;;;14.50;99.90;;;;;;2062538;28;20191;-67
2023/09/03 01:03:09;;;;;;;4.05;3.50;;;14.50;99.90;;;;;;2066255;28;20221;-67
2023/09/03 01:04:10;;;;;;;6.00;3.37;;;14.50;99.90;;;;;;2062855;28;20174;-67
2023/09/03 01:05:12;;;;;;;5.03;3.50;;;14.50;99.90;;;;;;2054704;28;20182;-67
2023/09/03 01:06:14;;;;;;;4.28;3.15;;;14.50;99.90;;;;;;2054991;28;20211;-66
2023/09/03 01:07:16;;;;;;;3.90;3.50;;;14.50;99.90;;;;;;2069715;28;20189;-66
2023/09/03 01:08:17;;;;;;;6.03;3.60;;;14.50;99.90;;;;;;2063347;28;20659;-66
2023/09/03 01:09:19;;;;;;;3.80;3.40;;;14.50;99.90;;;;;;2063285;28;20213;-66
2023/09/03 01:10:25;;;;;;;3.78;3.42;;;14.50;99.90;;;;;;2063124;28;20803;-66
2023/09/03 01:11:53;;;;;;;4.72;3.30;;;14.50;99.90;;;;;;2056628;28;20797;-67
2023/09/03 01:12:59;;;;;;;4.60;3.35;;;14.40;99.90;;;;;;2061624;28;20312;-66
2023/09/03 01:14:28;;;;;;;4.53;3.55;;;14.40;99.90;;;;;;2047637;28;20215;-67
2023/09/03 01:15:34;;;;;;;3.97;3.05;;;14.40;99.90;;;;;;2044853;28;20226;-66
2023/09/03 01:16:50;;;;;;;3.55;2.97;;;14.40;99.90;;;;;;2055296;28;20230;-66
2023/09/03 01:17:57;;;;;;;4.53;3.70;;;14.40;99.90;;;;;;2066411;28;20349;-67
2023/09/03 01:19:05;;;;;;;6.13;3.20;;;14.40;99.90;;;;;;2069812;28;20273;-67
2023/09/03 01:20:11;;;;;;;4.00;3.60;;;14.30;99.90;;;;;;2054065;28;20245;-66
2023/09/03 01:21:51;;;;;;;3.72;3.33;;;14.30;99.90;;;;;;2048616;28;20207;-67
2023/09/03 01:23:20;;;;;;;3.95;3.55;;;14.40;99.90;;;;;;2061891;28;20245;-66
2023/09/03 01:24:35;;;;;;;4.78;3.25;;;14.30;99.90;;;;;;2053707;28;20218;-67
2023/09/03 01:25:55;;;;;;;4.20;3.70;;;14.30;99.90;;;;;;2055769;28;20237;-67
2023/09/03 01:27:24;;;;;;;4.85;3.10;;;14.30;99.90;;;;;;2061162;28;20217;-66
2023/09/03 01:28:38;;;;;;;3.90;3.50;;;14.20;99.90;;;;;;2059620;28;20237;-66
2023/09/03 01:29:41;;;;;;;4.45;3.42;;;14.30;99.90;;;;;;2053693;28;20269;-66
2023/09/03 01:30:42;;;;;;;4.13;3.70;;;14.20;99.90;;;;;;2054278;28;20238;-67
2023/09/03 01:31:45;;;;;;;5.20;3.55;;;14.10;99.90;;;;;;2053786;28;20321;-66
2023/09/03 01:32:47;;;;;;;3.75;3.42;;;14.20;99.90;;;;;;2041449;28;20294;-67
2023/09/03 01:33:48;;;;;;;4.97;3.67;;;14.20;99.90;;;;;;2039122;28;20840;-66
2023/09/03 01:34:51;;;;;;;3.60;3.25;;;14.10;99.90;;;;;;2053963;28;20234;-67
2023/09/03 01:35:54;;;;;;;3.75;3.42;;;14.20;99.90;;;;;;2061949;28;20324;-66
2023/09/03 01:36:55;;;;;;;5.97;4.00;;;14.30;99.90;;;;;;2059497;28;20288;-66
2023/09/03 01:37:56;;;;;;;3.97;3.58;;;14.30;99.90;;;;;;2052029;28;20314;-66
2023/09/03 01:39:04;;;;;;;4.67;3.63;;;14.30;99.90;;;;;;2054201;28;20222;-66
2023/09/03 01:40:06;;;;;;;4.15;3.38;;;14.30;99.90;;;;;;2053029;28;20361;-67
2023/09/03 01:41:07;;;;;;;4.78;3.70;;;14.30;99.90;;;;;;2054036;28;20210;-66
2023/09/03 01:42:08;;;;;;;3.88;3.25;;;14.30;99.90;;;;;;2063020;28;20189;-66
2023/09/03 01:43:09;;;;;;;3.63;3.33;;;14.30;99.90;;;;;;2061320;28;20205;-66
2023/09/03 01:44:09;;;;;;;5.47;3.93;;;14.30;99.90;;;;;;2058281;28;20197;-67
2023/09/03 01:45:10;;;;;;;4.17;3.63;;;14.30;99.90;;;;;;2059074;28;20811;-67
2023/09/03 01:46:19;;;;;;;4.27;3.20;;;14.30;99.90;;;;;;2062141;28;20197;-66
2023/09/03 01:47:53;;;;;;;4.53;3.80;;;14.30;99.90;;;;;;2053909;28;20425;-66
2023/09/03 01:49:02;;;;;;;3.92;3.53;;;14.20;99.90;;;;;;2057438;28;20400;-66
2023/09/03 01:50:28;;;;;;;3.47;3.17;;;14.20;99.90;;;;;;2060007;28;20703;-66
2023/09/03 01:51:41;;;;;;;3.70;3.40;;;14.20;99.90;;;;;;2056592;28;20230;-66
2023/09/03 01:53:02;;;;;;;3.55;3.25;;;14.20;99.90;;;;;;2055698;28;20226;-66
2023/09/03 01:54:25;;;;;;;6.03;3.42;;;14.10;99.90;;;;;;2060859;28;20764;-67
2023/09/03 01:55:27;;;;;;;3.70;3.40;;;14.10;99.90;;;;;;2068873;28;20279;-67
2023/09/03 01:56:35;;;;;;;4.38;3.33;;;14.10;99.90;;;;;;2062433;28;20222;-66
2023/09/03 01:57:47;;;;;;;4.85;3.45;;;14.10;99.90;;;;;;2054347;28;20234;-66
2023/09/03 01:58:49;;;;;;;4.43;3.83;;;14.10;99.90;;;;;;2063814;28;20309;-66
2023/09/03 01:59:53;;;;;;;7.03;3.70;;;14.10;99.90;;;;;;2061866;28;20229;-66
2023/09/03 02:00:56;;;;;;;4.45;3.00;;;14.00;99.90;;;;;;2061819;28;20808;-66
2023/09/03 02:01:57;;;;;;;3.40;3.10;;;14.00;99.90;;;;;;2059478;28;20214;-66
2023/09/03 02:03:01;;;;;;;3.80;3.33;;;14.00;99.90;;;;;;2054627;28;20210;-66
2023/09/03 02:04:02;;;;;;;3.83;3.30;;;14.10;99.90;;;;;;2055100;28;20243;-66
2023/09/03 02:05:03;;;;;;;4.33;3.50;;;14.00;99.90;;;;;;2056709;28;20222;-68
2023/09/03 02:06:06;;;;;;;3.50;3.20;;;14.10;99.90;;;;;;2057229;28;20198;-67
2023/09/03 02:07:07;;;;;;;4.43;3.85;;;14.00;99.90;;;;;;2057657;28;20213;-67
2023/09/03 02:08:07;;;;;;;4.00;3.43;;;14.10;99.90;;;;;;2053992;28;20174;-67
2023/09/03 02:09:08;;;;;;;4.30;3.50;;;14.00;99.90;;;;;;2054046;28;20190;-67
2023/09/03 02:10:10;;;;;;;7.57;3.50;;;14.00;99.90;;;;;;2061790;28;20183;-67
2023/09/03 02:11:10;;;;;;;4.53;3.33;;;14.00;99.90;;;;;;2063403;28;20229;-67
2023/09/03 02:12:11;;;;;;;3.87;3.00;;;14.00;99.90;;;;;;2049292;28;20184;-67
2023/09/03 02:13:12;;;;;;;3.47;2.90;;;14.00;99.90;;;;;;2054454;28;20661;-67
2023/09/03 02:14:12;;;;;;;4.20;3.27;;;14.00;99.90;;;;;;2059376;28;20186;-67
2023/09/03 02:15:13;;;;;;;5.03;3.40;;;13.90;99.90;;;;;;2060999;28;20178;-67
2023/09/03 02:16:14;;;;;;;4.77;3.77;;;13.90;99.90;;;;;;2062628;28;20662;-67
2023/09/03 02:17:19;;;;;;;3.93;3.50;;;13.90;99.90;;;;;;2061992;28;20182;-67
2023/09/03 02:18:20;;;;;;;5.03;3.50;;;13.90;99.90;;;;;;2069743;28;20828;-67
2023/09/03 02:19:21;;;;;;;3.97;3.57;;;13.90;99.90;;;;;;2062789;28;20187;-67
2023/09/03 02:20:21;;;;;;;6.67;3.90;;;13.90;99.90;;;;;;2062127;28;20545;-67
2023/09/03 02:21:22;;;;;;;4.57;3.80;;;13.90;99.90;;;;;;2061816;28;20610;-67
2023/09/03 02:22:23;;;;;;;4.60;4.10;;;13.80;99.90;;;;;;2062594;28;20730;-67
2023/09/03 02:23:23;;;;;;;4.60;4.10;;;13.80;99.90;;;;;;2055428;28;20245;-67
2023/09/03 02:24:24;;;;;;;6.53;3.63;;;13.90;99.90;;;;;;2046224;28;20235;-67
2023/09/03 02:25:25;;;;;;;4.20;3.50;;;13.90;99.90;;;;;;2052607;28;20687;-67
2023/09/03 02:26:26;;;;;;;4.43;3.33;;;13.90;99.90;;;;;;2061866;28;20244;-67
2023/09/03 02:27:26;;;;;;;3.73;3.43;;;13.90;99.90;;;;;;2063240;28;20316;-67
2023/09/03 02:28:28;;;;;;;5.20;3.40;;;13.90;99.90;;;;;;2065654;28;20226;-67
2023/09/03 02:29:28;;;;;;;4.72;3.40;;;13.80;99.90;;;;;;2063145;28;20241;-67
2023/09/03 02:30:29;;;;;;;7.67;3.73;;;13.90;99.90;;;;;;2067566;28;20610;-67
2023/09/03 02:31:30;;;;;;;3.83;3.17;;;13.90;99.90;;;;;;2062804;28;20222;-67
2023/09/03 02:32:30;;;;;;;4.37;3.50;;;13.90;99.90;;;;;;2061565;28;20229;-67
2023/09/03 02:33:31;;;;;;;6.27;3.93;;;13.90;99.90;;;;;;2062062;28;20230;-67
2023/09/03 02:34:33;;;;;;;4.80;3.37;;;13.90;99.90;;;;;;2061974;28;20793;-67
2023/09/03 02:35:34;;;;;;;3.95;3.40;;;13.90;99.90;;;;;;2050704;28;20227;-68
2023/09/03 02:36:35;;;;;;;6.03;3.37;;;13.80;99.90;;;;;;2056987;28;20729;-67
2023/09/03 02:37:35;;;;;;;4.77;3.17;;;13.90;99.90;;;;;;2061836;28;20238;-67
2023/09/03 02:38:36;;;;;;;4.27;3.40;;;13.90;99.90;;;;;;2062745;28;20258;-67
2023/09/03 02:39:37;;;;;;;3.50;3.20;;;13.90;99.90;;;;;;2062527;28;20597;-67
2023/09/03 02:40:37;;;;;;;4.83;3.70;;;13.80;99.90;;;;;;2062474;28;20753;-67
2023/09/03 02:41:38;;;;;;;5.47;3.50;;;13.90;99.90;;;;;;2070333;28;20225;-67
2023/09/03 02:42:39;;;;;;;4.10;3.50;;;13.80;99.90;;;;;;2062020;28;20590;-67
2023/09/03 02:43:39;;;;;;;7.57;4.17;;;13.80;99.90;;;;;;2062466;28;20228;-67
2023/09/03 02:44:40;;;;;;;4.53;3.83;;;13.90;99.90;;;;;;2070225;28;20228;-67
2023/09/03 02:45:41;;;;;;;4.13;3.47;;;13.80;99.90;;;;;;2058138;28;20285;-67
2023/09/03 02:46:42;;;;;;;3.87;3.37;;;13.80;99.90;;;;;;2062474;28;20233;-67
2023/09/03 02:47:42;;;;;;;4.87;4.07;;;13.80;99.90;;;;;;2070177;28;20312;-67
2023/09/03 02:48:44;;;;;;;3.73;3.40;;;13.80;99.90;;;;;;2070296;28;20233;-67
2023/09/03 02:49:45;;;;;;;5.43;3.42;;;13.80;99.90;;;;;;2070047;28;20229;-67
2023/09/03 02:50:47;;;;;;;3.67;3.10;;;13.80;99.90;;;;;;2069565;28;20265;-67
2023/09/03 02:51:48;;;;;;;5.50;3.20;;;13.80;99.90;;;;;;2070010;28;20221;-67
2023/09/03 02:52:49;;;;;;;4.67;3.40;;;13.80;99.90;;;;;;2069812;28;20341;-67
2023/09/03 02:53:51;;;;;;;4.10;3.70;;;13.80;99.90;;;;;;2066502;28;20243;-67
2023/09/03 02:54:52;;;;;;;3.72;3.13;;;13.80;99.90;;;;;;2053613;28;20238;-67
2023/09/03 02:55:58;;;;;;;3.53;3.22;;;13.80;99.90;;;;;;2053027;28;20296;-68
2023/09/03 02:56:59;;;;;;;3.80;3.25;;;13.80;99.90;;;;;;2061232;28;20303;-67
2023/09/03 02:58:00;;;;;;;4.33;3.43;;;13.80;99.90;;;;;;2061707;28;20221;-67
2023/09/03 02:59:00;;;;;;;5.63;3.40;;;13.70;99.90;;;;;;2064752;28;20602;-67
2023/09/03 03:00:01;;;;;;;3.50;3.20;;;13.80;99.90;;;;;;2053404;28;20325;-67
2023/09/03 03:01:14;;;;;;;3.60;3.17;;;13.70;99.90;;;;;;2038132;28;20732;-69
2023/09/03 03:02:15;;;;;;;5.28;3.63;;;13.80;99.90;;;;;;2052395;28;20198;-67
2023/09/03 03:03:16;;;;;;;3.83;3.07;;;13.70;99.90;;;;;;2062295;28;20183;-67
2023/09/03 03:04:16;;;;;;;4.00;3.03;;;13.70;99.90;;;;;;2059657;28;20201;-67
2023/09/03 03:05:17;;;;;;;4.63;3.67;;;13.70;99.90;;;;;;2062307;28;20182;-67
2023/09/03 03:06:18;;;;;;;4.53;3.87;;;13.70;99.90;;;;;;2053791;28;20266;-67
2023/09/03 03:07:19;;;;;;;4.65;3.40;;;13.70;99.90;;;;;;2053451;28;20424;-67
2023/09/03 03:08:20;;;;;;;4.80;3.40;;;13.70;99.90;;;;;;2063748;28;20194;-67
2023/09/03 03:09:20;;;;;;;4.97;3.27;;;13.60;99.90;;;;;;2065672;28;20193;-66
2023/09/03 03:10:21;;;;;;;3.90;3.50;;;13.60;99.90;;;;;;2060794;28;20198;-67
2023/09/03 03:11:23;;;;;;;6.63;3.50;;;13.60;99.90;;;;;;2058142;28;20235;-67
2023/09/03 03:12:24;;;;;;;4.32;3.90;;;13.60;99.90;;;;;;2062123;28;20230;-67
2023/09/03 03:13:25;;;;;;;4.33;3.57;;;13.60;99.90;;;;;;2061918;28;20234;-67
2023/09/03 03:14:25;;;;;;;4.63;3.30;;;13.60;99.90;;;;;;2061387;28;20229;-67
2023/09/03 03:15:26;;;;;;;3.50;3.20;;;13.60;99.90;;;;;;2056839;28;20390;-67
2023/09/03 03:16:27;;;;;;;4.43;3.40;;;13.60;99.90;;;;;;2061713;28;20237;-67
2023/09/03 03:17:27;;;;;;;3.90;3.30;;;13.60;99.90;;;;;;2062061;28;20288;-67
2023/09/03 03:18:28;;;;;;;4.27;3.70;;;13.60;99.90;;;;;;2057094;28;20230;-67
2023/09/03 03:19:29;;;;;;;3.57;3.27;;;13.60;99.90;;;;;;2046131;28;20321;-67
2023/09/03 03:20:30;;;;;;;4.00;3.40;;;13.60;99.90;;;;;;2069336;28;20253;-67
2023/09/03 03:21:30;;;;;;;3.60;3.30;;;13.60;99.90;;;;;;2062231;28;20317;-67
2023/09/03 03:22:31;;;;;;;5.40;3.63;;;13.60;99.90;;;;;;2061591;28;20230;-67
2023/09/03 03:23:33;;;;;;;4.80;4.27;;;13.60;99.90;;;;;;2053412;28;20230;-67
2023/09/03 03:24:34;;;;;;;5.75;4.65;;;13.60;99.90;;;;;;2063153;28;20230;-67
2023/09/03 03:25:35;;;;;;;4.20;3.80;;;13.60;99.90;;;;;;2069829;28;20693;-67
2023/09/03 03:26:37;;;;;;;4.73;3.77;;;13.60;99.90;;;;;;2068949;28;20284;-67
2023/09/03 03:27:38;;;;;;;4.88;3.67;;;13.60;99.90;;;;;;2061880;28;20321;-67
2023/09/03 03:28:38;;;;;;;4.53;4.03;;;13.60;99.90;;;;;;2053395;28;20350;-67
2023/09/03 03:29:39;;;;;;;5.07;4.40;;;13.50;99.90;;;;;;2053683;28;20230;-67
2023/09/03 03:30:40;;;;;;;5.20;3.80;;;13.50;99.90;;;;;;2056525;28;20254;-67
2023/09/03 03:31:42;;;;;;;4.43;3.50;;;13.60;99.90;;;;;;2067692;28;20236;-67
2023/09/03 03:32:43;;;;;;;5.05;3.85;;;13.60;99.90;;;;;;2054316;28;20309;-68
2023/09/03 03:33:46;;;;;;;3.83;3.43;;;13.60;99.90;;;;;;2054533;28;20241;-67
2023/09/03 03:34:47;;;;;;;4.20;3.80;;;13.60;99.90;;;;;;2064337;28;20222;-67
2023/09/03 03:35:47;;;;;;;5.67;3.80;;;13.60;99.90;;;;;;2051219;28;20231;-67
2023/09/03 03:36:48;;;;;;;5.90;3.83;;;13.60;99.90;;;;;;2054018;28;20603;-67
2023/09/03 03:37:49;;;;;;;4.67;3.50;;;13.50;99.90;;;;;;2068870;28;20304;-67
2023/09/03 03:38:50;;;;;;;3.50;3.20;;;13.60;99.90;;;;;;2064068;28;20218;-68
2023/09/03 03:39:50;;;;;;;3.80;3.40;;;13.60;99.90;;;;;;2062297;28;20683;-68
2023/09/03 03:40:51;;;;;;;5.27;3.43;;;13.60;99.90;;;;;;2061570;28;20234;-68
2023/09/03 03:41:52;;;;;;;3.50;3.13;;;13.60;99.90;;;;;;2062064;28;20226;-69
2023/09/03 03:42:52;;;;;;;5.87;3.43;;;13.60;99.90;;;;;;2061712;28;20225;-67
2023/09/03 03:43:53;;;;;;;4.30;3.87;;;13.60;99.90;;;;;;2061585;28;20241;-67
2023/09/03 03:44:54;;;;;;;4.17;3.40;;;13.60;99.90;;;;;;2062310;28;20222;-68
2023/09/03 03:45:57;;;;;;;4.40;3.77;;;13.60;99.90;;;;;;2061329;28;20285;-67
2023/09/03 03:46:58;;;;;;;3.83;3.50;;;13.60;99.90;;;;;;2054888;28;20234;-68
2023/09/03 03:47:59;;;;;;;4.70;3.47;;;13.60;99.90;;;;;;2053654;28;20594;-67
2023/09/03 03:48:59;;;;;;;3.77;3.40;;;13.60;99.90;;;;;;2061567;28;20694;-67
2023/09/03 03:50:00;;;;;;;5.00;3.17;;;13.60;99.90;;;;;;2061705;28;20218;-68
2023/09/03 03:51:01;;;;;;;3.77;2.90;;;13.60;99.90;;;;;;2048889;28;20226;-67
2023/09/03 03:52:02;;;;;;;3.92;3.38;;;13.50;99.90;;;;;;2047457;28;20298;-68
2023/09/03 03:53:03;;;;;;;3.20;2.90;;;13.50;99.90;;;;;;2053413;28;20205;-68
2023/09/03 03:54:05;;;;;;;4.97;2.97;;;13.50;99.90;;;;;;2062106;28;20518;-68
2023/09/03 03:55:06;;;;;;;3.63;3.08;;;13.50;99.90;;;;;;2063667;28;20675;-67
2023/09/03 03:56:09;;;;;;;4.00;3.10;;;13.40;99.90;;;;;;2054291;28;20214;-68
2023/09/03 03:57:10;;;;;;;3.53;3.22;;;13.40;99.90;;;;;;2048060;28;20190;-67
2023/09/03 03:58:11;;;;;;;3.70;3.15;;;13.30;99.90;;;;;;2051859;28;20207;-67
2023/09/03 03:59:12;;;;;;;4.73;3.63;;;13.40;99.90;;;;;;2060041;28;20181;-67
2023/09/03 04:00:13;;;;;;;3.57;3.27;;;13.40;99.90;;;;;;2071333;28;20209;-67
2023/09/03 04:01:19;;;;;;;5.60;4.10;;;13.40;99.90;;;;;;2062839;28;20208;-67
2023/09/03 04:02:19;;;;;;;4.05;3.38;;;13.40;99.90;;;;;;2063276;28;20214;-67
2023/09/03 04:03:22;;;;;;;4.83;3.70;;;13.40;99.90;;;;;;2063048;28;20182;-67
2023/09/03 04:04:24;;;;;;;5.45;4.35;;;13.40;99.90;;;;;;2063261;28;20224;-67
2023/09/03 04:05:24;;;;;;;4.65;4.20;;;13.40;99.90;;;;;;2070979;28;20217;-67
2023/09/03 04:06:27;;;;;;;4.70;4.03;;;13.50;99.90;;;;;;2063342;28;20229;-67
2023/09/03 04:07:28;;;;;;;5.85;4.57;;;13.40;99.90;;;;;;2063716;28;20341;-67
2023/09/03 04:08:32;;;;;;;5.17;3.97;;;13.40;99.90;;;;;;2055102;28;20298;-68
2023/09/03 04:09:33;;;;;;;4.75;4.22;;;13.50;99.90;;;;;;2055914;28;20234;-67
2023/09/03 04:10:33;;;;;;;6.03;4.10;;;13.50;99.90;;;;;;2055222;28;20258;-67
2023/09/03 04:11:34;;;;;;;5.07;4.57;;;13.50;99.90;;;;;;2055495;28;20231;-67
2023/09/03 04:12:35;;;;;;;4.70;4.20;;;13.50;99.90;;;;;;2057380;28;20289;-68
2023/09/03 04:13:37;;;;;;;4.53;3.93;;;13.60;99.90;;;;;;2061907;28;20238;-67
2023/09/03 04:14:38;;;;;;;4.38;3.67;;;13.60;99.90;;;;;;2051095;28;20231;-67
2023/09/03 04:15:39;;;;;;;4.37;3.97;;;13.60;99.90;;;;;;2053310;28;20247;-68
2023/09/03 04:16:39;;;;;;;4.57;4.10;;;13.50;99.90;;;;;;2063168;28;20326;-67
2023/09/03 04:17:40;;;;;;;5.80;4.40;;;13.60;99.90;;;;;;2060485;28;20649;-67
2023/09/03 04:18:42;;;;;;;5.53;4.13;;;13.60;99.90;;;;;;2062501;28;20234;-67
2023/09/03 04:19:47;;;;;;;4.32;3.65;;;13.70;99.90;;;;;;2063293;28;20222;-67
2023/09/03 04:20:51;;;;;;;5.18;4.18;;;13.70;99.90;;;;;;2069749;28;20678;-67
2023/09/03 04:21:52;;;;;;;4.70;4.00;;;13.70;99.90;;;;;;2061930;28;20230;-67
2023/09/03 04:22:53;;;;;;;5.27;4.50;;;13.70;99.90;;;;;;2062754;28;20228;-67
2023/09/03 04:23:54;;;;;;;5.45;4.47;;;13.70;99.90;;;;;;2071162;28;20225;-67
2023/09/03 04:24:55;;;;;;;5.70;4.00;;;13.80;99.90;;;;;;2071261;28;20221;-67
2023/09/03 04:25:57;;;;;;;4.27;3.87;;;13.80;99.90;;;;;;2062687;28;20734;-67
2023/09/03 04:26:58;;;;;;;5.85;3.80;;;13.90;99.90;;;;;;2056356;28;20224;-68
2023/09/03 04:27:59;;;;;;;5.07;3.97;;;13.80;99.90;;;;;;2063104;28;20661;-67
2023/09/03 04:28:59;;;;;;;4.63;3.80;;;13.90;99.90;;;;;;2062799;28;20733;-67
2023/09/03 04:30:00;;;;;;;4.20;3.50;;;13.80;99.90;;;;;;2064003;28;20245;-67
2023/09/03 04:31:08;;;;;;;5.83;4.67;;;13.90;99.90;;;;;;2062807;28;20617;-68
2023/09/03 04:32:08;;;;;;;4.30;3.45;;;13.80;99.90;;;;;;2051824;28;20215;-68
2023/09/03 04:33:09;;;;;;;4.37;3.37;;;13.90;99.90;;;;;;2063004;28;20265;-68
2023/09/03 04:34:12;;;;;;;3.75;3.45;;;13.80;99.90;;;;;;2063334;28;20221;-68
2023/09/03 04:35:13;;;;;;;4.78;3.67;;;13.80;99.90;;;;;;2063412;28;20182;-68
2023/09/03 04:36:13;;;;;;;5.00;3.80;;;13.70;99.90;;;;;;2071757;28;20182;-67
2023/09/03 04:37:14;;;;;;;4.23;3.77;;;13.70;99.90;;;;;;2062773;28;20315;-67
2023/09/03 04:38:15;;;;;;;5.20;3.80;;;13.70;99.90;;;;;;2054930;28;20183;-67
2023/09/03 04:39:15;;;;;;;4.40;4.00;;;13.70;99.90;;;;;;2055155;28;20667;-67
2023/09/03 04:40:16;;;;;;;4.23;3.63;;;13.70;99.90;;;;;;2054541;28;20187;-67
2023/09/03 04:41:17;;;;;;;5.57;3.60;;;13.70;99.90;;;;;;2062583;28;20700;-67
2023/09/03 04:42:18;;;;;;;4.07;3.00;;;13.70;99.90;;;;;;2066108;28;20633;-67
2023/09/03 04:43:19;;;;;;;5.30;3.73;;;13.60;99.90;;;;;;2057616;28;20186;-68
2023/09/03 04:44:20;;;;;;;3.75;2.92;;;13.50;99.90;;;;;;2055973;28;20183;-68
2023/09/03 04:45:21;;;;;;;3.70;3.03;;;13.50;99.90;;;;;;2065264;28;20206;-67
2023/09/03 04:46:21;;;;;;;3.70;2.83;;;13.50;99.90;;;;;;2063331;28;20834;-67
2023/09/03 04:47:22;;;;;;;3.67;2.77;;;13.60;99.90;;;;;;2064575;28;20234;-67
2023/09/03 04:48:23;;;;;;;4.10;2.97;;;13.60;99.90;;;;;;2062113;28;20285;-67
2023/09/03 04:49:24;;;;;;;3.17;2.80;;;13.50;99.90;;;;;;2063858;28;20797;-67
2023/09/03 04:50:25;;;;;;;4.03;3.13;;;13.50;99.90;;;;;;2063598;28;20595;-67
2023/09/03 04:51:26;;;;;;;4.95;3.47;;;13.50;99.90;;;;;;2062578;28;20262;-67
2023/09/03 04:52:27;;;;;;;3.93;2.90;;;13.50;99.90;;;;;;2049778;28;20227;-68
2023/09/03 04:53:28;;;;;;;4.17;3.43;;;13.60;99.90;;;;;;2047276;28;20281;-67
2023/09/03 04:54:31;;;;;;;4.67;3.27;;;13.50;99.90;;;;;;2062671;28;20739;-67
2023/09/03 04:55:33;;;;;;;4.15;3.30;;;13.50;99.90;;;;;;2063209;28;20226;-67
2023/09/03 04:56:33;;;;;;;3.30;3.00;;;13.50;99.90;;;;;;2054428;28;20228;-67
2023/09/03 04:57:34;;;;;;;3.90;3.43;;;13.50;99.90;;;;;;2054750;28;20240;-67
2023/09/03 04:58:35;;;;;;;3.40;3.10;;;13.50;99.90;;;;;;2062121;28;20782;-67
2023/09/03 04:59:35;;;;;;;4.40;3.20;;;13.60;99.90;;;;;;2062642;28;20257;-67
2023/09/03 05:00:36;;;;;;;3.20;2.80;;;13.60;99.90;;;;;;2054431;28;20262;-67
2023/09/03 05:01:37;;;;;;;4.40;3.13;;;13.60;99.90;;;;;;2047270;28;20799;-69
2023/09/03 05:02:38;;;;;;;3.83;3.43;;;13.60;99.90;;;;;;2062897;28;20280;-67
2023/09/03 05:03:38;;;;;;;4.90;3.30;;;13.60;99.90;;;;;;2063686;28;20356;-67
2023/09/03 05:04:39;;;;;;;4.30;3.50;;;13.70;99.90;;;;;;2065484;28;20222;-67
2023/09/03 05:05:41;;;;;;;3.63;3.10;;;13.70;99.90;;;;;;2063049;28;20667;-67
2023/09/03 05:06:42;;;;;;;4.80;3.33;;;13.70;99.90;;;;;;2061910;28;20230;-67
2023/09/03 05:07:43;;;;;;;5.27;3.10;;;13.70;99.90;;;;;;2063842;28;20226;-70
2023/09/03 05:08:45;;;;;;;4.27;3.50;;;13.70;99.90;;;;;;2063718;28;20234;-67
2023/09/03 05:09:46;;;;;;;3.35;3.05;;;13.60;99.90;;;;;;2062965;28;20654;-67
2023/09/03 05:10:46;;;;;;;3.67;3.27;;;13.60;99.90;;;;;;2062616;28;20226;-67
2023/09/03 05:11:47;;;;;;;5.13;3.50;;;13.60;99.90;;;;;;2060280;28;20244;-67
2023/09/03 05:12:48;;;;;;;3.60;3.30;;;13.60;99.90;;;;;;2064766;28;20249;-67
2023/09/03 05:13:48;;;;;;;3.90;3.53;;;13.70;99.90;;;;;;2066818;28;20237;-67
2023/09/03 05:14:49;;;;;;;4.10;3.70;;;13.70;99.90;;;;;;2065389;28;20254;-67
2023/09/03 05:15:51;;;;;;;4.60;3.47;;;13.70;99.90;;;;;;2062347;28;20226;-67
2023/09/03 05:16:51;;;;;;;4.75;3.80;;;13.70;99.90;;;;;;2059365;28;20239;-67
2023/09/03 05:17:52;;;;;;;3.50;3.17;;;13.70;99.90;;;;;;2052162;28;20223;-67
2023/09/03 05:18:54;;;;;;;4.50;3.73;;;13.70;99.90;;;;;;2062081;28;20229;-67
2023/09/03 05:19:54;;;;;;;4.28;3.45;;;13.80;99.90;;;;;;2062745;28;20593;-67
2023/09/03 05:20:55;;;;;;;4.17;3.77;;;13.80;99.90;;;;;;2062779;28;20230;-67
2023/09/03 05:21:56;;;;;;;4.40;3.90;;;13.80;99.90;;;;;;2054401;28;20235;-67
2023/09/03 05:22:57;;;;;;;5.25;3.92;;;13.80;99.90;;;;;;2054990;28;20233;-67
2023/09/03 05:23:58;;;;;;;5.07;3.90;;;13.90;99.90;;;;;;2065157;28;20253;-67
2023/09/03 05:24:58;;;;;;;5.40;4.10;;;14.00;99.90;;;;;;2070766;28;20230;-67
2023/09/03 05:25:59;;;;;;;4.27;3.87;;;14.00;99.90;;;;;;2064399;28;20297;-68